createdAt,value
2022-09-12T00:00:10.982Z,23.28
2022-09-12T00:06:59.139Z,23.15
2022-09-12T00:13:45.826Z,23.11
2022-09-12T00:20:34.065Z,23.07
2022-09-12T00:27:19.468Z,22.95
2022-09-12T00:34:05.623Z,22.88
2022-09-12T00:40:53.437Z,23.01
2022-09-12T00:47:40.688Z,22.76
2022-09-12T00:54:31.024Z,22.62
2022-09-12T01:01:19.034Z,22.39
2022-09-12T01:08:05.952Z,22.21
2022-09-12T01:14:54.412Z,22.05
2022-09-12T01:21:54.225Z,22.02
2022-09-12T01:29:28.272Z,21.53
2022-09-12T01:36:42.434Z,21.99
2022-09-12T01:43:36.086Z,21.57
2022-09-12T01:50:25.604Z,21.97
2022-09-12T01:57:21.692Z,21.92
2022-09-12T02:04:13.405Z,21.93
2022-09-12T02:11:03.442Z,21.91
2022-09-12T02:17:54.389Z,21.80
2022-09-12T02:24:43.380Z,21.77
2022-09-12T02:31:36.049Z,21.70
2022-09-12T02:38:32.985Z,21.61
2022-09-12T03:06:07.290Z,21.33
2022-09-12T03:13:02.340Z,21.27
2022-09-12T03:20:01.653Z,21.22
2022-09-12T03:26:56.068Z,21.15
2022-09-12T03:33:41.455Z,21.14
2022-09-12T03:40:26.855Z,20.99
2022-09-12T03:47:14.869Z,20.98
2022-09-12T03:54:00.336Z,20.94
2022-09-12T04:00:45.762Z,20.91
2022-09-12T04:07:33.832Z,20.83
2022-09-12T04:14:19.284Z,20.79
2022-09-12T04:21:08.224Z,20.75
2022-09-12T04:27:56.229Z,20.72
2022-09-12T04:34:41.896Z,20.62
2022-09-12T04:41:30.794Z,20.66
2022-09-12T04:48:18.739Z,20.50
2022-09-12T04:55:04.145Z,20.49
2022-09-12T05:01:50.332Z,20.41
2022-09-12T05:08:39.213Z,20.37
2022-09-12T05:15:25.196Z,20.32
2022-09-12T05:22:10.621Z,20.30
2022-09-12T05:28:58.684Z,20.29
2022-09-12T05:35:44.266Z,19.84
2022-09-12T05:42:29.612Z,20.25
2022-09-12T05:49:17.639Z,20.22
2022-09-12T05:56:11.754Z,20.20
2022-09-12T06:02:57.108Z,20.20
2022-09-12T06:09:45.057Z,20.16
2022-09-12T06:16:33.113Z,19.95
2022-09-12T06:23:18.568Z,20.24
2022-09-12T06:30:07.169Z,20.31
2022-09-12T06:36:53.188Z,20.39
2022-09-12T06:43:38.836Z,20.56
2022-09-12T06:50:26.938Z,20.74
2022-09-12T06:57:12.330Z,20.93
2022-09-12T07:04:00.199Z,21.10
2022-09-12T07:10:48.276Z,21.23
2022-09-12T07:17:33.687Z,21.50
2022-09-12T07:24:19.066Z,21.56
2022-09-12T07:31:13.543Z,21.62
2022-09-12T07:37:59.229Z,22.15
2022-09-12T07:44:44.877Z,22.35
2022-09-12T07:51:34.523Z,22.55
2022-09-12T07:58:19.888Z,22.71
2022-09-12T08:05:05.357Z,22.79
2022-09-12T08:11:53.603Z,22.79
2022-09-12T08:18:39.689Z,22.92
2022-09-12T08:25:25.076Z,23.19
2022-09-12T08:32:13.428Z,23.20
2022-09-12T08:39:01.699Z,23.44
2022-09-12T08:46:00.607Z,23.63
2022-09-12T08:52:58.696Z,23.79
2022-09-12T08:59:48.357Z,24.02
2022-09-12T09:07:18.288Z,24.18
2022-09-12T09:14:41.507Z,24.39
2022-09-12T09:21:32.430Z,24.69
2022-09-12T09:28:23.812Z,24.93
2022-09-12T09:35:21.932Z,25.13
2022-09-12T09:42:23.136Z,25.40
2022-09-12T09:49:10.532Z,25.60
2022-09-12T09:56:01.905Z,25.82
2022-09-12T10:02:47.612Z,26.13
2022-09-12T10:09:34.983Z,26.54
2022-09-12T10:16:28.552Z,26.68
2022-09-12T10:23:33.458Z,26.80
2022-09-12T10:30:25.087Z,27.08
2022-09-12T10:37:21.465Z,26.85
2022-09-12T10:44:12.061Z,27.25
2022-09-12T10:50:57.477Z,27.48
2022-09-12T10:58:11.562Z,27.69
2022-09-12T11:05:06.581Z,27.88
2022-09-12T11:12:10.927Z,27.94
2022-09-12T11:19:47.285Z,28.15
2022-09-12T11:26:56.143Z,28.36
2022-09-12T11:33:46.713Z,28.47
2022-09-12T11:40:42.285Z,28.55
2022-09-12T11:47:28.685Z,28.81
2022-09-12T11:54:23.321Z,28.77
2022-09-12T12:01:20.960Z,28.95
2022-09-12T12:08:10.007Z,28.79
2022-09-12T12:14:59.053Z,28.56
2022-09-12T12:21:48.929Z,29.19
2022-09-12T12:29:02.413Z,29.21
2022-09-12T12:36:05.361Z,29.41
2022-09-12T12:43:31.894Z,29.61
2022-09-12T12:50:26.772Z,29.67
2022-09-12T12:57:30.657Z,29.78
2022-09-12T13:04:22.665Z,29.80
2022-09-12T13:11:13.061Z,29.74
2022-09-12T13:18:06.011Z,29.91
2022-09-12T13:24:55.060Z,29.74
2022-09-12T13:31:45.263Z,29.48
2022-09-12T13:38:49.792Z,29.73
2022-09-12T13:45:42.051Z,29.88
2022-09-12T13:52:31.120Z,29.88
2022-09-12T13:59:16.512Z,30.07
2022-09-12T14:06:06.387Z,29.96
2022-09-12T14:12:52.853Z,30.11
2022-09-12T14:19:38.560Z,30.08
2022-09-12T14:26:28.334Z,29.98
2022-09-12T14:33:23.766Z,30.08
2022-09-12T14:40:22.785Z,30.15
2022-09-12T14:47:27.762Z,30.17
2022-09-12T14:54:40.278Z,30.23
2022-09-12T15:01:29.273Z,30.21
2022-09-12T15:08:18.908Z,30.05
2022-09-12T15:15:17.606Z,29.87
2022-09-12T15:22:03.087Z,30.09
2022-09-12T15:28:51.881Z,30.20
2022-09-12T15:35:37.549Z,30.14
2022-09-12T15:42:32.156Z,30.21
2022-09-12T15:49:20.088Z,30.39
2022-09-12T15:56:06.346Z,30.51
2022-09-12T16:02:54.925Z,30.48
2022-09-12T16:09:43.087Z,30.60
2022-09-12T16:16:28.463Z,30.64
2022-09-12T16:23:15.268Z,30.70
2022-09-12T16:30:03.376Z,30.71
2022-09-12T16:36:48.745Z,30.74
2022-09-12T16:43:35.927Z,30.72
2022-09-12T16:50:23.982Z,30.68
2022-09-12T16:57:09.440Z,30.59
2022-09-12T17:03:57.032Z,30.40
2022-09-12T17:10:46.995Z,30.39
2022-09-12T17:17:32.331Z,30.32
2022-09-12T17:24:18.090Z,30.24
2022-09-12T17:31:09.336Z,29.64
2022-09-12T17:37:54.812Z,30.07
2022-09-12T17:44:40.557Z,29.62
2022-09-12T17:51:30.813Z,29.82
2022-09-12T17:58:16.301Z,29.76
2022-09-12T18:05:05.345Z,29.69
2022-09-12T18:11:53.744Z,29.60
2022-09-12T18:18:40.687Z,29.56
2022-09-12T18:25:26.229Z,29.47
2022-09-12T18:32:14.582Z,29.30
2022-09-12T18:39:02.665Z,29.22
2022-09-12T18:45:48.184Z,29.13
2022-09-12T18:52:36.244Z,29.07
2022-09-12T18:59:21.855Z,28.91
2022-09-12T19:06:12.213Z,28.66
2022-09-12T19:13:02.057Z,28.48
2022-09-12T19:19:47.415Z,28.30
2022-09-12T19:26:33.359Z,27.99
2022-09-12T19:33:21.513Z,28.09
2022-09-12T19:40:08.087Z,27.89
2022-09-12T19:46:53.773Z,27.70
2022-09-12T19:53:42.564Z,27.48
2022-09-12T20:00:28.158Z,27.35
2022-09-12T20:07:13.574Z,27.17
2022-09-12T20:14:02.078Z,26.99
2022-09-12T20:20:47.431Z,26.73
2022-09-12T20:27:33.061Z,25.91
2022-09-12T20:34:24.727Z,25.89
2022-09-12T20:41:12.423Z,26.11
2022-09-12T20:47:58.160Z,26.27
2022-09-12T20:54:45.948Z,26.42
2022-09-12T21:01:33.089Z,26.16
2022-09-12T21:08:18.807Z,25.93
2022-09-12T21:15:07.498Z,25.93
2022-09-12T21:21:53.026Z,25.70
2022-09-12T21:28:39.520Z,25.87
2022-09-12T21:35:27.472Z,25.83
2022-09-12T21:42:13.004Z,25.86
2022-09-12T21:48:58.664Z,25.85
2022-09-12T21:55:46.717Z,25.64
2022-09-12T22:02:32.371Z,25.57
2022-09-12T22:09:17.981Z,25.65
2022-09-12T22:16:07.752Z,25.54
2022-09-12T22:23:05.888Z,25.39
2022-09-12T22:29:53.255Z,25.23
2022-09-12T22:36:41.268Z,25.11
2022-09-12T22:43:26.766Z,25.05
2022-09-12T22:50:12.499Z,25.00
2022-09-12T22:57:00.483Z,24.91
2022-09-12T23:03:46.522Z,24.84
2022-09-12T23:10:32.249Z,24.80
2022-09-12T23:17:20.167Z,24.70
2022-09-12T23:24:06.837Z,24.69
2022-09-12T23:31:00.198Z,24.58
2022-09-12T23:37:48.698Z,24.50
2022-09-12T23:44:34.032Z,24.03
2022-09-12T23:51:21.762Z,23.78
2022-09-12T23:58:10.059Z,24.19
